Time;durP1;ratioP1;P1;durP2;ratioP2;P2;SDS_P1;SDS_P2;PMS_P1;PMS_P2;Temp;Humidity;BMP_temperature;BMP_pressure;BME280_temperature;BME280_humidity;BME280_pressure;Samples;Min_cycle;Max_cycle;Signal;HPM_P1;HPM_P2
2022/01/27 00:01:43;;;;;;;27.38;11.23;;;7.40;95.90;;;;;;5156430;27;38709;-58
2022/01/27 00:04:16;;;;;;;27.42;11.50;;;7.10;95.80;;;;;;5154720;27;35683;-59
2022/01/27 00:06:43;;;;;;;21.52;10.93;;;7.10;95.70;;;;;;5155274;27;38046;-58
2022/01/27 00:09:19;;;;;;;29.58;12.50;;;7.00;95.60;;;;;;5155417;27;37901;-59
2022/01/27 00:11:48;;;;;;;26.73;12.63;;;7.10;95.50;;;;;;5155639;27;37029;-59
2022/01/27 00:14:18;;;;;;;27.30;12.43;;;7.10;95.60;;;;;;5153644;27;37335;-58
2022/01/27 00:16:55;;;;;;;27.60;12.77;;;7.10;95.50;;;;;;5154890;27;35572;-59
2022/01/27 00:19:23;;;;;;;29.40;13.13;;;7.00;95.40;;;;;;5155858;27;36229;-58
2022/01/27 00:21:50;;;;;;;25.48;12.75;;;7.00;95.30;;;;;;5155111;27;37684;-59
2022/01/27 00:24:18;;;;;;;31.75;14.32;;;6.90;95.20;;;;;;5154388;27;38074;-58
2022/01/27 00:26:46;;;;;;;23.63;12.30;;;6.90;95.30;;;;;;5156375;27;37285;-59
2022/01/27 00:29:13;;;;;;;31.48;14.40;;;7.00;95.30;;;;;;5159179;27;37117;-60
2022/01/27 00:31:41;;;;;;;27.58;12.50;;;7.00;95.30;;;;;;5159787;27;36140;-58
2022/01/27 00:34:09;;;;;;;27.10;13.38;;;7.00;95.30;;;;;;5160130;27;35529;-59
2022/01/27 00:36:37;;;;;;;30.33;14.13;;;7.00;95.30;;;;;;5159360;27;37403;-59
2022/01/27 00:39:04;;;;;;;27.10;13.00;;;7.00;95.20;;;;;;5159008;27;37351;-59
2022/01/27 00:41:31;;;;;;;31.20;13.80;;;7.00;95.20;;;;;;5160018;27;38326;-59
2022/01/27 00:44:00;;;;;;;29.58;12.65;;;6.90;95.00;;;;;;5159172;27;35723;-59
2022/01/27 00:46:27;;;;;;;31.25;13.90;;;6.90;95.00;;;;;;5159478;27;36404;-59
2022/01/27 00:48:54;;;;;;;27.85;14.15;;;6.90;94.80;;;;;;5159444;27;37218;-59
2022/01/27 00:51:26;;;;;;;35.25;14.25;;;6.90;94.70;;;;;;5159944;27;37131;-59
2022/01/27 00:54:02;;;;;;;24.30;12.50;;;6.90;94.70;;;;;;5159809;27;36833;-58
2022/01/27 00:56:37;;;;;;;25.02;12.25;;;6.90;94.70;;;;;;5158380;27;39933;-59
2022/01/27 00:59:21;;;;;;;23.17;12.35;;;6.80;94.60;;;;;;5159165;27;38752;-59
2022/01/27 01:01:55;;;;;;;23.65;12.45;;;6.80;94.50;;;;;;5159954;27;37060;-59
2022/01/27 01:04:28;;;;;;;26.52;12.30;;;6.90;94.50;;;;;;5159647;27;36657;-59
2022/01/27 01:06:57;;;;;;;25.92;12.30;;;6.80;94.40;;;;;;5159877;27;37556;-59
2022/01/27 01:15:04;;;;;;;26.73;13.60;;;6.80;94.10;;;;;;5155877;27;37112;-58
2022/01/27 01:17:51;;;;;;;24.98;12.30;;;6.80;94.20;;;;;;5158793;27;38448;-58
2022/01/27 01:31:44;;;;;;;23.25;13.48;;;6.70;94.00;;;;;;5110782;27;36604;-58
2022/01/27 01:34:15;;;;;;;29.60;13.50;;;6.70;93.90;;;;;;5160228;27;37111;-59
2022/01/27 01:36:52;;;;;;;28.15;14.55;;;6.70;94.00;;;;;;5158818;27;36696;-58
2022/01/27 01:39:22;;;;;;;29.65;13.77;;;6.70;94.00;;;;;;5158866;27;36451;-58
2022/01/27 01:41:50;;;;;;;23.92;13.80;;;6.60;93.80;;;;;;5158800;27;37347;-58
2022/01/27 01:44:17;;;;;;;26.67;14.48;;;6.60;93.90;;;;;;5156814;27;37176;-59
2022/01/27 01:46:45;;;;;;;29.92;14.75;;;6.60;93.90;;;;;;5156798;27;37140;-59
2022/01/27 01:49:12;;;;;;;28.98;14.63;;;6.60;93.90;;;;;;5157513;27;38343;-58
2022/01/27 01:51:43;;;;;;;26.35;14.23;;;6.50;94.00;;;;;;5157625;27;38276;-58
2022/01/27 01:54:11;;;;;;;28.27;14.95;;;6.50;93.90;;;;;;5155877;27;36908;-58
2022/01/27 01:56:42;;;;;;;26.63;15.23;;;6.50;94.00;;;;;;5159286;27;35657;-58
2022/01/27 01:59:10;;;;;;;28.52;15.40;;;6.50;93.90;;;;;;5158935;27;37588;-58
2022/01/27 02:01:38;;;;;;;30.52;15.18;;;6.50;94.00;;;;;;5157936;27;37922;-59
2022/01/27 02:04:09;;;;;;;29.52;15.45;;;6.50;94.00;;;;;;5158305;27;37772;-59
2022/01/27 02:06:42;;;;;;;30.83;15.90;;;6.50;93.90;;;;;;5159475;27;37544;-59
2022/01/27 02:09:19;;;;;;;31.60;15.75;;;6.60;93.80;;;;;;5157517;27;37178;-59
2022/01/27 02:20:06;;;;;;;27.85;15.52;;;6.40;93.90;;;;;;5159727;27;38491;-58
2022/01/27 02:22:33;;;;;;;29.35;15.93;;;6.50;93.90;;;;;;5159258;27;37567;-58
2022/01/27 02:25:01;;;;;;;30.20;15.68;;;6.50;93.90;;;;;;5159009;27;37670;-58
2022/01/27 02:27:29;;;;;;;26.02;15.50;;;6.60;94.00;;;;;;5157944;27;36891;-58
2022/01/27 02:29:56;;;;;;;29.02;16.52;;;6.60;94.00;;;;;;5158226;27;38545;-58
2022/01/27 02:32:24;;;;;;;32.63;15.80;;;6.60;94.00;;;;;;5159134;27;36911;-58
2022/01/27 02:34:52;;;;;;;29.70;17.23;;;6.60;94.00;;;;;;5158716;27;35813;-58
2022/01/27 02:37:21;;;;;;;31.20;16.67;;;6.60;94.00;;;;;;5158850;27;36794;-59
2022/01/27 02:39:48;;;;;;;29.33;17.48;;;6.60;94.00;;;;;;5157845;27;37367;-58
2022/01/27 02:42:25;;;;;;;31.08;16.80;;;6.70;94.00;;;;;;5158030;27;37166;-58
2022/01/27 02:45:04;;;;;;;33.22;17.67;;;6.70;94.00;;;;;;5158600;27;36103;-58
2022/01/27 02:47:32;;;;;;;34.22;17.27;;;6.60;93.90;;;;;;5158387;27;36877;-59
2022/01/27 02:50:00;;;;;;;31.55;16.48;;;6.70;94.00;;;;;;5158303;27;36472;-58
2022/01/27 02:52:28;;;;;;;29.75;17.10;;;6.60;94.10;;;;;;5158538;27;37304;-59
2022/01/27 02:54:56;;;;;;;31.85;17.48;;;6.70;94.00;;;;;;5158162;27;38638;-59
2022/01/27 02:57:24;;;;;;;31.42;17.40;;;6.70;94.10;;;;;;5157490;27;36989;-59
2022/01/27 02:59:52;;;;;;;35.45;18.20;;;6.70;93.90;;;;;;5158731;27;37284;-58
2022/01/27 03:02:19;;;;;;;28.60;16.85;;;6.70;93.90;;;;;;5157661;27;37384;-58
2022/01/27 03:04:47;;;;;;;30.58;17.33;;;6.70;94.00;;;;;;5157860;27;38076;-59
2022/01/27 03:07:15;;;;;;;32.05;17.60;;;6.70;93.90;;;;;;5156088;27;36813;-59
2022/01/27 03:09:44;;;;;;;31.98;19.20;;;6.70;93.90;;;;;;5155820;27;37645;-58
2022/01/27 03:12:12;;;;;;;34.33;17.23;;;6.70;93.90;;;;;;5156984;27;37407;-58
2022/01/27 03:14:41;;;;;;;30.77;17.88;;;6.70;94.20;;;;;;5157508;27;36133;-58
2022/01/27 03:17:09;;;;;;;36.55;18.10;;;6.80;94.00;;;;;;5158393;27;39249;-58
2022/01/27 03:19:37;;;;;;;35.47;18.73;;;6.70;93.90;;;;;;5157732;27;39206;-58
2022/01/27 03:22:06;;;;;;;33.33;18.48;;;6.70;94.00;;;;;;5158104;27;37109;-59
2022/01/27 03:24:34;;;;;;;31.10;17.70;;;6.80;94.00;;;;;;5158453;27;37947;-58
2022/01/27 03:27:06;;;;;;;28.83;16.80;;;6.80;94.00;;;;;;5157056;27;37383;-58
2022/01/27 03:29:33;;;;;;;34.00;18.02;;;6.70;94.00;;;;;;5159029;27;37622;-59
2022/01/27 03:32:00;;;;;;;26.65;16.75;;;6.80;93.90;;;;;;5156874;27;37066;-58
2022/01/27 03:34:28;;;;;;;33.13;16.50;;;6.80;94.00;;;;;;5158413;27;37424;-58
2022/01/27 03:36:55;;;;;;;28.70;16.70;;;6.80;94.00;;;;;;5157618;27;36657;-58
2022/01/27 03:39:23;;;;;;;29.95;15.77;;;6.80;94.00;;;;;;5157945;27;36237;-58
2022/01/27 03:41:51;;;;;;;30.88;15.77;;;6.80;94.00;;;;;;5157879;27;36339;-58
2022/01/27 03:44:21;;;;;;;30.20;16.75;;;6.80;94.00;;;;;;5159620;27;36800;-59
2022/01/27 03:46:49;;;;;;;32.70;16.50;;;6.90;94.00;;;;;;5157447;27;36677;-58
2022/01/27 03:49:17;;;;;;;33.75;16.35;;;6.90;94.10;;;;;;5157873;27;39155;-58
2022/01/27 03:51:45;;;;;;;33.95;16.80;;;6.90;94.10;;;;;;5157625;27;37094;-58
2022/01/27 03:54:13;;;;;;;42.72;16.77;;;6.90;94.10;;;;;;5157666;27;36106;-58
2022/01/27 03:56:40;;;;;;;33.83;16.05;;;6.90;94.10;;;;;;5157068;27;36649;-58
2022/01/27 03:59:08;;;;;;;37.78;16.20;;;6.90;94.20;;;;;;5157585;27;37445;-58
2022/01/27 04:01:38;;;;;;;24.77;15.07;;;6.90;94.20;;;;;;5157044;27;37237;-58
2022/01/27 04:04:06;;;;;;;36.70;17.13;;;6.90;94.30;;;;;;5156868;27;37041;-58
2022/01/27 04:06:35;;;;;;;29.20;15.55;;;6.90;94.30;;;;;;5156332;27;36910;-58
2022/01/27 04:09:04;;;;;;;35.38;16.20;;;6.90;94.30;;;;;;5157075;27;38136;-58
2022/01/27 04:11:32;;;;;;;34.00;17.65;;;6.90;94.40;;;;;;5157946;27;38398;-58
2022/01/27 04:13:59;;;;;;;34.50;17.42;;;6.90;94.40;;;;;;5156822;27;38131;-58
2022/01/27 04:16:26;;;;;;;35.22;16.98;;;6.90;94.50;;;;;;5156862;27;35458;-58
2022/01/27 04:18:55;;;;;;;31.98;15.30;;;6.90;94.50;;;;;;5157569;27;37435;-58
2022/01/27 04:21:23;;;;;;;36.67;15.98;;;6.90;94.60;;;;;;5157804;27;38575;-58
2022/01/27 04:23:51;;;;;;;25.58;15.25;;;6.90;94.60;;;;;;5157495;27;38308;-58
2022/01/27 04:26:23;;;;;;;30.50;15.65;;;6.90;94.70;;;;;;5157908;27;37544;-58
2022/01/27 04:28:52;;;;;;;35.67;16.63;;;6.90;94.70;;;;;;5154321;27;37597;-58
2022/01/27 04:31:20;;;;;;;32.20;15.45;;;7.00;94.80;;;;;;5155392;27;37576;-58
2022/01/27 04:33:47;;;;;;;36.63;16.48;;;7.00;94.80;;;;;;5158345;27;36319;-58
2022/01/27 04:36:21;;;;;;;29.98;14.23;;;7.00;94.80;;;;;;5159858;27;37442;-58
2022/01/27 04:38:54;;;;;;;36.05;15.45;;;7.00;95.00;;;;;;5159866;27;36384;-58
2022/01/27 04:41:29;;;;;;;28.90;14.60;;;7.00;95.20;;;;;;5160031;27;37203;-59
2022/01/27 04:44:02;;;;;;;31.85;14.70;;;7.00;95.40;;;;;;5161689;27;37078;-58
2022/01/27 04:46:36;;;;;;;25.08;13.95;;;7.00;95.80;;;;;;5160724;27;38049;-58
2022/01/27 04:49:05;;;;;;;30.23;13.68;;;6.90;95.80;;;;;;5160166;27;37822;-58
2022/01/27 04:51:34;;;;;;;26.70;14.13;;;6.90;96.10;;;;;;5161070;27;37273;-58
2022/01/27 04:54:07;;;;;;;29.60;14.52;;;6.90;96.00;;;;;;5161249;27;37077;-58
2022/01/27 04:56:37;;;;;;;31.58;14.30;;;6.90;96.10;;;;;;5159684;27;36642;-58
2022/01/27 04:59:10;;;;;;;32.20;14.27;;;7.00;96.10;;;;;;5158829;27;36409;-58
2022/01/27 05:01:41;;;;;;;30.40;13.20;;;7.00;96.10;;;;;;5158530;27;37185;-58
2022/01/27 05:04:12;;;;;;;29.27;13.25;;;7.00;96.30;;;;;;5159153;27;37529;-59
2022/01/27 05:06:41;;;;;;;30.98;14.15;;;7.00;96.30;;;;;;5159943;27;37824;-58
2022/01/27 05:09:08;;;;;;;35.13;15.27;;;7.00;96.60;;;;;;5157147;27;37459;-58
2022/01/27 05:11:39;;;;;;;30.13;13.77;;;7.00;97.00;;;;;;5159215;27;36104;-58
2022/01/27 05:14:12;;;;;;;30.85;14.68;;;7.00;96.90;;;;;;5158791;27;37113;-58
2022/01/27 05:16:39;;;;;;;28.83;14.23;;;7.00;97.10;;;;;;5159048;27;37595;-58
2022/01/27 05:19:06;;;;;;;32.28;13.60;;;7.00;97.40;;;;;;5158861;27;37310;-58
2022/01/27 05:21:34;;;;;;;30.90;14.20;;;7.00;97.60;;;;;;5161286;27;37150;-58
2022/01/27 05:24:04;;;;;;;34.15;15.30;;;7.00;97.70;;;;;;5160129;27;38392;-58
2022/01/27 05:26:33;;;;;;;36.55;14.48;;;6.90;97.90;;;;;;5160159;27;37408;-59
2022/01/27 05:29:00;;;;;;;35.92;14.63;;;6.90;97.90;;;;;;5158177;27;36989;-58
2022/01/27 05:31:28;;;;;;;34.13;13.95;;;6.90;98.40;;;;;;5157886;27;38576;-58
2022/01/27 05:33:55;;;;;;;38.22;13.48;;;6.90;98.60;;;;;;5158867;27;36104;-59
2022/01/27 05:36:22;;;;;;;34.78;14.27;;;6.90;98.70;;;;;;5157179;27;36752;-58
2022/01/27 05:38:50;;;;;;;35.30;14.52;;;6.90;98.70;;;;;;5157870;27;37330;-58
2022/01/27 05:41:19;;;;;;;35.65;14.02;;;6.90;99.30;;;;;;5158046;27;38276;-58
2022/01/27 05:43:46;;;;;;;30.05;13.73;;;6.90;99.10;;;;;;5156892;27;35965;-58
2022/01/27 05:46:13;;;;;;;36.53;13.25;;;7.00;99.20;;;;;;5156588;27;37713;-58
2022/01/27 05:48:41;;;;;;;34.85;12.88;;;6.90;99.50;;;;;;5158234;27;37727;-58
2022/01/27 05:51:08;;;;;;;34.15;13.23;;;6.90;99.80;;;;;;5156646;27;36085;-58
2022/01/27 05:53:37;;;;;;;27.70;13.40;;;6.90;99.90;;;;;;5156882;27;37746;-58
2022/01/27 05:56:04;;;;;;;29.55;12.75;;;6.90;99.90;;;;;;5157520;27;37861;-58
2022/01/27 05:58:33;;;;;;;32.72;14.02;;;6.90;99.80;;;;;;5157667;27;39119;-58
2022/01/27 06:01:01;;;;;;;32.80;12.55;;;7.00;99.90;;;;;;5157335;27;38444;-59
2022/01/27 06:03:28;;;;;;;32.53;14.32;;;6.90;99.90;;;;;;5158125;27;37100;-58
2022/01/27 06:05:55;;;;;;;37.80;13.65;;;6.90;99.90;;;;;;5158080;27;37251;-58
2022/01/27 06:08:23;;;;;;;27.90;13.18;;;6.90;99.90;;;;;;5158416;27;37583;-58
2022/01/27 06:10:50;;;;;;;29.05;13.48;;;7.00;99.90;;;;;;5157564;27;37603;-58
2022/01/27 06:13:18;;;;;;;30.25;12.95;;;7.00;99.90;;;;;;5157006;27;37891;-58
2022/01/27 06:15:46;;;;;;;28.58;12.27;;;7.00;99.90;;;;;;5158109;27;36746;-59
2022/01/27 06:18:14;;;;;;;26.88;13.15;;;7.00;99.90;;;;;;5157506;27;38445;-58
2022/01/27 06:20:43;;;;;;;26.50;12.10;;;7.00;99.90;;;;;;5157676;27;37544;-58
2022/01/27 06:23:11;;;;;;;31.08;12.05;;;7.00;99.90;;;;;;5157504;27;38230;-58
2022/01/27 06:25:39;;;;;;;29.42;11.60;;;7.00;99.90;;;;;;5157644;27;34277;-58
2022/01/27 06:28:06;;;;;;;30.33;11.57;;;7.00;99.90;;;;;;5157426;27;37170;-62
2022/01/27 06:30:35;;;;;;;30.85;12.40;;;7.10;99.90;;;;;;5157018;27;36712;-58
2022/01/27 06:33:04;;;;;;;29.05;11.90;;;7.00;99.90;;;;;;5157969;27;38143;-58
2022/01/27 06:35:32;;;;;;;31.67;12.10;;;7.10;99.90;;;;;;5157934;27;36752;-58
2022/01/27 06:37:59;;;;;;;28.90;12.13;;;7.10;99.90;;;;;;5159068;27;38462;-58
2022/01/27 06:40:27;;;;;;;31.67;12.82;;;7.10;99.90;;;;;;5157490;27;36031;-60
2022/01/27 06:42:54;;;;;;;23.98;11.60;;;7.10;99.90;;;;;;5158298;27;36720;-58
2022/01/27 06:45:22;;;;;;;27.48;12.02;;;7.10;99.90;;;;;;5157984;27;37317;-59
2022/01/27 06:47:49;;;;;;;28.63;12.40;;;7.20;99.90;;;;;;5157218;27;38598;-58
2022/01/27 06:50:18;;;;;;;30.77;11.00;;;7.20;99.90;;;;;;5157043;27;37082;-58
2022/01/27 06:52:45;;;;;;;31.73;12.50;;;7.20;99.90;;;;;;5156349;27;36017;-58
2022/01/27 06:55:17;;;;;;;26.63;11.43;;;7.20;99.90;;;;;;5154425;27;38552;-58
2022/01/27 06:57:46;;;;;;;32.85;12.45;;;7.20;99.90;;;;;;5155854;27;38440;-58
2022/01/27 07:00:15;;;;;;;27.65;11.48;;;7.10;99.90;;;;;;5156910;27;36254;-58
2022/01/27 07:02:42;;;;;;;30.88;11.50;;;7.20;99.90;;;;;;5156436;27;35984;-58
2022/01/27 07:05:10;;;;;;;30.02;11.55;;;7.20;99.90;;;;;;5156048;27;36695;-58
2022/01/27 07:07:38;;;;;;;26.30;11.88;;;7.20;99.90;;;;;;5156745;27;38580;-58
2022/01/27 07:10:07;;;;;;;30.27;10.68;;;7.30;99.90;;;;;;5155655;27;38394;-58
2022/01/27 07:12:34;;;;;;;23.08;10.48;;;7.20;99.90;;;;;;5156015;27;37227;-58
2022/01/27 07:15:01;;;;;;;28.38;11.93;;;7.30;99.90;;;;;;5155516;27;37619;-58
2022/01/27 07:17:29;;;;;;;22.50;10.00;;;7.30;99.90;;;;;;5156129;27;37163;-58
2022/01/27 07:19:56;;;;;;;23.58;10.57;;;7.30;99.90;;;;;;5155891;27;35784;-58
2022/01/27 07:22:23;;;;;;;24.30;9.82;;;7.30;99.90;;;;;;5156163;27;37052;-58
2022/01/27 07:24:52;;;;;;;24.05;9.65;;;7.30;99.90;;;;;;5155249;27;36717;-58
2022/01/27 07:27:20;;;;;;;23.02;9.43;;;7.30;99.90;;;;;;5155888;27;37557;-58
2022/01/27 07:29:47;;;;;;;20.17;8.80;;;7.30;99.90;;;;;;5153796;27;37912;-59
2022/01/27 07:32:14;;;;;;;29.08;10.30;;;7.30;99.90;;;;;;5155142;27;37071;-58
2022/01/27 07:34:42;;;;;;;21.92;9.93;;;7.40;99.90;;;;;;5156872;27;36399;-58
2022/01/27 07:37:09;;;;;;;24.10;10.18;;;7.40;99.90;;;;;;5156383;27;37437;-59
2022/01/27 07:39:36;;;;;;;22.65;10.25;;;7.40;99.90;;;;;;5155973;27;37131;-58
2022/01/27 07:42:06;;;;;;;30.70;10.68;;;7.40;99.90;;;;;;5157347;27;35969;-58
2022/01/27 07:44:33;;;;;;;27.75;10.32;;;7.50;99.90;;;;;;5156290;27;37239;-58
2022/01/27 07:47:01;;;;;;;27.17;10.32;;;7.50;99.90;;;;;;5155849;27;37388;-58
2022/01/27 07:49:29;;;;;;;29.75;11.23;;;7.50;99.90;;;;;;5155450;27;37042;-58
2022/01/27 07:51:56;;;;;;;30.42;10.77;;;7.60;99.90;;;;;;5155439;27;38027;-58
2022/01/27 07:54:24;;;;;;;30.45;11.38;;;7.50;99.90;;;;;;5156190;27;38183;-58
2022/01/27 07:56:51;;;;;;;30.90;10.30;;;7.60;99.90;;;;;;5156684;27;37952;-58
2022/01/27 07:59:20;;;;;;;36.28;11.25;;;7.60;99.90;;;;;;5155763;27;37094;-58
2022/01/27 08:01:47;;;;;;;25.77;9.43;;;7.70;99.90;;;;;;5154924;27;38149;-59
2022/01/27 08:04:15;;;;;;;31.95;9.52;;;7.70;99.90;;;;;;5155154;27;36910;-58
2022/01/27 08:06:42;;;;;;;31.98;9.65;;;7.70;99.90;;;;;;5155730;27;39272;-58
2022/01/27 08:09:10;;;;;;;33.33;9.15;;;7.80;99.90;;;;;;5159670;27;37285;-58
2022/01/27 08:11:37;;;;;;;33.00;9.70;;;7.80;99.90;;;;;;5158143;27;37482;-58
2022/01/27 08:14:04;;;;;;;27.60;9.75;;;7.80;99.90;;;;;;5158001;27;36378;-58
2022/01/27 08:16:33;;;;;;;27.02;9.43;;;7.80;99.90;;;;;;5159075;27;39228;-58
2022/01/27 08:19:01;;;;;;;19.85;7.65;;;7.90;99.90;;;;;;5160652;27;38471;-58
2022/01/27 08:21:28;;;;;;;32.90;8.65;;;7.90;99.90;;;;;;5159985;27;38366;-58
2022/01/27 08:23:56;;;;;;;22.60;8.45;;;7.90;99.90;;;;;;5159523;27;35345;-58
2022/01/27 08:26:33;;;;;;;22.95;8.10;;;7.90;99.90;;;;;;5158266;27;38800;-58
2022/01/27 08:29:10;;;;;;;31.98;8.50;;;7.90;99.90;;;;;;5157578;27;37549;-58
2022/01/27 08:31:54;;;;;;;27.42;8.15;;;7.90;99.90;;;;;;5159307;27;37075;-58
2022/01/27 08:34:29;;;;;;;26.60;8.05;;;8.00;99.90;;;;;;5158816;27;36531;-58
2022/01/27 08:36:57;;;;;;;30.20;7.93;;;8.00;99.90;;;;;;5160753;27;37912;-59
2022/01/27 08:39:25;;;;;;;25.15;7.38;;;8.00;99.90;;;;;;5158129;27;38236;-58
2022/01/27 08:41:53;;;;;;;22.05;8.57;;;8.10;99.90;;;;;;5158696;27;37247;-59
2022/01/27 08:44:20;;;;;;;29.30;8.55;;;8.00;99.90;;;;;;5160299;27;35329;-58
2022/01/27 08:46:49;;;;;;;28.45;8.23;;;8.10;99.90;;;;;;5160945;27;37616;-58
2022/01/27 08:49:19;;;;;;;26.58;7.85;;;8.10;99.90;;;;;;5158468;27;37420;-58
2022/01/27 08:51:46;;;;;;;24.83;6.50;;;8.10;99.90;;;;;;5158097;27;36991;-58
2022/01/27 08:54:14;;;;;;;28.00;7.82;;;8.10;99.90;;;;;;5158849;27;35296;-58
2022/01/27 08:56:42;;;;;;;25.95;6.95;;;8.10;99.90;;;;;;5157795;27;39038;-58
2022/01/27 08:59:09;;;;;;;23.30;6.28;;;8.10;99.90;;;;;;5157728;27;37232;-58
2022/01/27 09:01:38;;;;;;;21.25;6.47;;;8.20;99.90;;;;;;5160279;27;37886;-58
2022/01/27 09:04:08;;;;;;;21.23;6.68;;;8.20;99.90;;;;;;5159062;27;37253;-58
2022/01/27 09:06:36;;;;;;;29.48;6.97;;;8.20;99.90;;;;;;5160102;27;36926;-58
2022/01/27 09:09:05;;;;;;;22.48;6.13;;;8.20;99.90;;;;;;5160798;27;37393;-58
2022/01/27 09:11:33;;;;;;;22.98;6.20;;;8.20;99.90;;;;;;5160376;27;40085;-58
2022/01/27 09:14:01;;;;;;;22.10;6.00;;;8.30;99.90;;;;;;5158924;27;37300;-58
2022/01/27 09:16:29;;;;;;;21.48;6.20;;;8.30;99.90;;;;;;5159265;27;38794;-58
2022/01/27 09:18:57;;;;;;;26.73;6.70;;;8.30;99.90;;;;;;5159857;27;37257;-58
2022/01/27 09:21:33;;;;;;;24.50;5.65;;;8.30;99.90;;;;;;5160464;27;37410;-58
2022/01/27 09:24:00;;;;;;;21.45;5.65;;;8.30;99.90;;;;;;5158578;27;36360;-58
2022/01/27 09:26:42;;;;;;;20.35;5.40;;;8.40;99.90;;;;;;5156864;27;38119;-58
2022/01/27 09:29:10;;;;;;;17.40;4.70;;;8.40;99.90;;;;;;5158531;27;38430;-58
2022/01/27 09:31:37;;;;;;;20.27;5.25;;;8.40;99.90;;;;;;5157611;27;37124;-59
2022/01/27 09:34:05;;;;;;;23.52;5.60;;;8.50;99.90;;;;;;5157872;27;36515;-58
2022/01/27 09:36:34;;;;;;;33.53;4.97;;;8.40;99.90;;;;;;5157193;27;38914;-58
2022/01/27 09:39:01;;;;;;;23.13;5.30;;;8.50;99.90;;;;;;5158145;27;37506;-58
2022/01/27 09:41:29;;;;;;;23.13;4.78;;;8.50;99.90;;;;;;5156645;27;37951;-58
2022/01/27 09:43:58;;;;;;;23.95;5.65;;;8.50;99.90;;;;;;5157270;27;36334;-58
2022/01/27 09:46:26;;;;;;;23.27;5.55;;;8.50;99.90;;;;;;5156914;27;38903;-58
2022/01/27 09:48:54;;;;;;;17.25;5.13;;;8.50;99.90;;;;;;5157940;27;35738;-58
2022/01/27 09:51:37;;;;;;;21.95;6.10;;;8.50;99.90;;;;;;5157743;27;35986;-59
2022/01/27 09:54:06;;;;;;;23.25;5.28;;;8.60;99.90;;;;;;5157722;27;37388;-58
2022/01/27 09:56:35;;;;;;;25.20;5.82;;;8.60;99.90;;;;;;5158552;27;36370;-58
2022/01/27 09:59:03;;;;;;;19.20;4.90;;;8.70;99.90;;;;;;5157297;27;37854;-58
2022/01/27 10:01:30;;;;;;;17.58;4.20;;;8.70;99.90;;;;;;5158101;27;36805;-58
2022/01/27 10:04:00;;;;;;;23.67;5.63;;;8.70;99.90;;;;;;5157747;27;36594;-58
2022/01/27 10:06:30;;;;;;;26.55;5.53;;;8.80;99.90;;;;;;5158698;27;36524;-59
2022/01/27 10:09:20;;;;;;;20.75;4.95;;;8.80;99.90;;;;;;5154958;27;38388;-58
2022/01/27 10:11:49;;;;;;;30.55;5.00;;;8.80;99.90;;;;;;5157706;27;38918;-58
2022/01/27 10:14:22;;;;;;;18.85;4.07;;;8.80;99.90;;;;;;5156726;27;35315;-58
2022/01/27 10:16:52;;;;;;;19.33;4.93;;;8.80;99.90;;;;;;5158411;27;38352;-58
2022/01/27 10:19:20;;;;;;;18.27;4.28;;;8.90;99.90;;;;;;5158994;27;40028;-58
2022/01/27 10:21:48;;;;;;;18.73;3.95;;;9.00;99.90;;;;;;5157729;27;37215;-59
2022/01/27 10:24:21;;;;;;;23.83;4.72;;;8.90;99.90;;;;;;5158061;27;37913;-59
2022/01/27 10:26:54;;;;;;;18.92;4.28;;;8.90;99.90;;;;;;5156793;27;39305;-59
2022/01/27 10:29:35;;;;;;;19.42;4.50;;;8.90;99.90;;;;;;5156570;27;37208;-59
2022/01/27 10:32:05;;;;;;;24.45;4.72;;;9.00;99.90;;;;;;5157546;27;37272;-59
2022/01/27 10:34:56;;;;;;;26.33;5.40;;;9.00;99.90;;;;;;5157768;27;35481;-59
2022/01/27 10:37:23;;;;;;;24.25;6.35;;;9.10;99.90;;;;;;5157119;27;38252;-59
2022/01/27 10:39:52;;;;;;;24.95;4.60;;;9.10;99.90;;;;;;5158966;27;37217;-59
2022/01/27 10:42:21;;;;;;;23.70;5.07;;;9.20;99.90;;;;;;5157587;27;36584;-59
2022/01/27 10:44:55;;;;;;;24.25;4.55;;;9.30;99.90;;;;;;5158715;27;37016;-59
2022/01/27 10:47:29;;;;;;;19.52;4.25;;;9.30;99.90;;;;;;5156620;27;37482;-59
2022/01/27 10:50:00;;;;;;;19.08;3.47;;;9.30;99.90;;;;;;5157637;27;35549;-59
2022/01/27 10:52:36;;;;;;;22.42;4.22;;;9.30;99.90;;;;;;5155401;27;39342;-60
2022/01/27 10:55:09;;;;;;;25.23;5.32;;;9.30;99.90;;;;;;5156596;27;37470;-59
2022/01/27 10:57:37;;;;;;;;;;;9.30;99.90;;;;;;5159176;27;36336;-59
2022/01/27 11:00:10;;;;;;;16.92;3.83;;;9.30;99.90;;;;;;5157199;27;37310;-60
2022/01/27 11:02:51;;;;;;;23.95;4.80;;;9.30;99.90;;;;;;5157323;27;35918;-59
2022/01/27 11:05:19;;;;;;;20.95;4.00;;;9.40;99.90;;;;;;5156955;27;36446;-60
2022/01/27 11:07:46;;;;;;;20.70;4.47;;;9.40;99.90;;;;;;5157901;27;36470;-59
2022/01/27 11:10:16;;;;;;;24.67;4.38;;;9.40;99.90;;;;;;5157231;27;37334;-59
2022/01/27 11:12:45;;;;;;;25.83;5.38;;;9.50;99.90;;;;;;5158410;27;37192;-59
2022/01/27 11:15:14;;;;;;;21.70;4.10;;;9.50;99.90;;;;;;5157079;27;36436;-60
2022/01/27 11:17:43;;;;;;;21.33;3.97;;;9.50;99.90;;;;;;5158358;27;38188;-59
2022/01/27 11:20:26;;;;;;;23.45;4.53;;;9.50;99.90;;;;;;5156125;27;37065;-59
2022/01/27 11:23:11;;;;;;;18.92;4.05;;;9.50;99.90;;;;;;5157893;27;37932;-60
2022/01/27 11:25:53;;;;;;;19.38;3.70;;;9.50;99.90;;;;;;5158428;27;35416;-60
2022/01/27 11:28:21;;;;;;;19.73;3.78;;;9.50;99.90;;;;;;5156903;27;37508;-60
2022/01/27 11:30:58;;;;;;;24.25;4.97;;;9.50;99.90;;;;;;5156597;27;38678;-60
2022/01/27 11:33:32;;;;;;;24.83;4.43;;;9.50;99.90;;;;;;5157134;27;40087;-60
2022/01/27 11:36:10;;;;;;;31.60;4.97;;;9.50;99.90;;;;;;5157199;27;36731;-60
2022/01/27 11:38:39;;;;;;;25.33;3.92;;;9.50;99.80;;;;;;5158195;27;36399;-60
2022/01/27 11:41:39;;;;;;;24.33;3.78;;;9.60;99.70;;;;;;5158843;27;38677;-60
2022/01/27 11:44:23;;;;;;;22.85;4.25;;;9.60;99.40;;;;;;5159613;27;37092;-60
2022/01/27 11:47:19;;;;;;;23.00;4.53;;;9.60;99.40;;;;;;5161810;27;36958;-60
2022/01/27 11:49:56;;;;;;;22.13;3.70;;;9.60;99.20;;;;;;5160163;27;37739;-60
2022/01/27 11:52:27;;;;;;;20.67;3.75;;;9.70;99.10;;;;;;5160740;27;37337;-60
2022/01/27 11:54:57;;;;;;;20.85;3.85;;;9.70;98.90;;;;;;5160153;27;37464;-60
2022/01/27 11:57:42;;;;;;;23.23;4.43;;;9.70;98.90;;;;;;5161199;27;36859;-60
2022/01/27 12:00:16;;;;;;;27.15;5.18;;;9.60;98.80;;;;;;5161554;27;38810;-60
2022/01/27 12:03:08;;;;;;;20.55;3.90;;;9.70;98.80;;;;;;5159679;27;35841;-60
2022/01/27 12:05:38;;;;;;;30.42;5.10;;;9.70;98.70;;;;;;5160508;27;36025;-60
2022/01/27 12:08:24;;;;;;;27.15;4.05;;;9.60;98.50;;;;;;5161618;27;37529;-60
2022/01/27 12:10:56;;;;;;;23.30;5.38;;;9.60;98.50;;;;;;5160281;27;37512;-60
2022/01/27 12:14:03;;;;;;;25.88;3.95;;;9.60;98.80;;;;;;5162174;27;38216;-60
2022/01/27 12:19:15;;;;;;;24.02;4.43;;;9.70;98.40;;;;;;5160523;27;37438;-60
2022/01/27 12:21:46;;;;;;;18.25;3.63;;;9.60;98.40;;;;;;5161538;27;37597;-59
2022/01/27 12:24:24;;;;;;;21.60;4.38;;;9.60;98.10;;;;;;5162021;27;37859;-59
2022/01/27 12:26:55;;;;;;;19.92;3.55;;;9.60;98.10;;;;;;5161933;27;37795;-60
2022/01/27 12:29:32;;;;;;;25.17;4.18;;;9.60;98.10;;;;;;5159881;27;36572;-60
2022/01/27 12:32:01;;;;;;;27.90;4.57;;;9.60;98.10;;;;;;5161109;27;38212;-60
2022/01/27 12:34:30;;;;;;;29.98;5.93;;;9.60;98.10;;;;;;5161918;27;37412;-59
2022/01/27 12:37:18;;;;;;;22.70;4.07;;;9.60;98.00;;;;;;5162118;27;36686;-60
2022/01/27 12:39:51;;;;;;;23.75;4.50;;;9.60;97.90;;;;;;5161299;27;35387;-60
2022/01/27 12:42:20;;;;;;;19.70;3.53;;;9.70;97.90;;;;;;5160795;27;36489;-60
2022/01/27 12:44:56;;;;;;;18.20;4.22;;;9.70;97.80;;;;;;5161075;27;39843;-60
2022/01/27 12:47:25;;;;;;;18.13;4.78;;;9.70;97.70;;;;;;5161745;27;36995;-60
2022/01/27 12:50:02;;;;;;;24.33;3.63;;;9.70;97.50;;;;;;5160208;27;36492;-60
2022/01/27 12:52:32;;;;;;;22.98;3.78;;;9.70;97.60;;;;;;5159110;27;38291;-59
2022/01/27 12:54:59;;;;;;;21.90;3.90;;;9.80;97.50;;;;;;5161542;27;38847;-60
2022/01/27 12:57:28;;;;;;;23.23;3.58;;;9.80;97.40;;;;;;5160967;27;36994;-60
2022/01/27 12:59:58;;;;;;;22.77;3.75;;;9.80;97.30;;;;;;5161359;27;37027;-60
2022/01/27 13:02:27;;;;;;;18.08;4.05;;;9.90;97.20;;;;;;5160838;27;36367;-60
2022/01/27 13:04:56;;;;;;;24.70;3.67;;;9.90;97.00;;;;;;5160958;27;37355;-60
2022/01/27 13:07:25;;;;;;;21.25;3.70;;;9.90;97.00;;;;;;5161553;27;37989;-60
2022/01/27 13:09:57;;;;;;;19.92;3.97;;;9.90;96.80;;;;;;5161873;27;36555;-60
2022/01/27 13:12:29;;;;;;;27.20;4.47;;;9.90;96.70;;;;;;5161395;27;37621;-60
2022/01/27 13:15:06;;;;;;;29.52;5.22;;;9.90;96.40;;;;;;5158786;27;38090;-60
2022/01/27 13:17:41;;;;;;;22.58;4.70;;;9.90;96.40;;;;;;5160579;27;39514;-60
2022/01/27 13:20:13;;;;;;;22.80;3.63;;;9.90;96.50;;;;;;5160962;27;35432;-59
2022/01/27 13:22:49;;;;;;;24.20;3.85;;;9.90;96.30;;;;;;5160132;27;39260;-60
2022/01/27 13:25:18;;;;;;;24.98;3.75;;;9.90;96.10;;;;;;5161764;27;38025;-59